Time;durP1;ratioP1;P1;durP2;ratioP2;P2;SDS_P1;SDS_P2;PMS_P1;PMS_P2;Temp;Humidity;BMP_temperature;BMP_pressure;BME280_temperature;BME280_humidity;BME280_pressure;Samples;Min_cycle;Max_cycle;Signal;HPM_P1;HPM_P2
2022/06/06 00:01:42;;;;;;;4.95;3.78;;;;;;;22.86;46.50;93779.59;4983122;28;20093;-74
2022/06/06 00:04:08;;;;;;;6.68;4.32;;;;;;;22.79;46.93;93776.09;4983632;28;20038;-74
2022/06/06 00:06:33;;;;;;;7.10;3.47;;;;;;;22.88;46.70;93790.81;4984711;28;20113;-73
2022/06/06 00:08:59;;;;;;;6.25;3.75;;;;;;;22.70;47.33;93766.44;4983634;28;20119;-73
2022/06/06 00:11:24;;;;;;;4.85;3.05;;;;;;;22.85;47.89;93786.16;4984894;28;20134;-74
2022/06/06 00:13:50;;;;;;;4.20;3.58;;;;;;;22.72;47.51;93749.78;4985749;28;20737;-73
2022/06/06 00:16:15;;;;;;;4.95;3.72;;;;;;;22.77;47.28;93752.09;4977771;28;20046;-74
2022/06/06 00:18:41;;;;;;;9.77;3.47;;;;;;;22.75;47.51;93757.13;4975485;28;20406;-72
2022/06/06 00:21:09;;;;;;;4.50;3.88;;;;;;;22.84;47.01;93765.63;4982644;28;20045;-74
2022/06/06 00:23:36;;;;;;;6.03;3.72;;;;;;;22.78;46.69;93753.63;4985318;28;20595;-74
2022/06/06 00:26:09;;;;;;;5.45;3.58;;;;;;;22.58;47.01;93739.00;4982133;28;20121;-73
2022/06/06 00:28:39;;;;;;;9.02;4.43;;;;;;;22.69;47.57;93761.41;4985816;28;20034;-74
2022/06/06 00:36:35;;;;;;;3.85;3.08;;;;;;;22.11;47.39;93740.94;4983809;28;20563;-74
2022/06/06 00:39:03;;;;;;;4.55;3.40;;;;;;;22.34;47.24;93726.25;4983289;28;20020;-74
2022/06/06 00:41:28;;;;;;;3.20;2.83;;;;;;;22.44;47.14;93722.75;4981359;28;20033;-74
2022/06/06 00:44:15;;;;;;;3.63;2.90;;;;;;;22.51;47.02;93709.97;4984045;28;20039;-73
2022/06/06 00:46:47;;;;;;;4.07;2.97;;;;;;;22.34;46.97;93693.75;4983641;28;20038;-74
2022/06/06 00:49:40;;;;;;;4.88;3.28;;;;;;;22.42;47.08;93701.47;4984640;28;20041;-74
2022/06/06 00:52:13;;;;;;;7.60;3.88;;;;;;;22.56;46.59;93714.19;4981862;28;20118;-74
2022/06/06 00:54:40;;;;;;;4.95;3.40;;;;;;;22.52;46.82;93700.66;4983840;28;20058;-73
2022/06/06 00:57:13;;;;;;;8.07;3.38;;;;;;;22.50;46.66;93700.28;4982722;28;20038;-74
2022/06/06 00:59:42;;;;;;;3.78;3.13;;;;;;;22.43;46.59;93672.44;4985891;28;20045;-74
2022/06/06 01:02:11;;;;;;;4.85;3.42;;;;;;;22.48;47.09;93680.16;4979515;28;20093;-73
2022/06/06 01:04:39;;;;;;;3.97;3.58;;;;;;;22.50;46.88;93677.81;4982320;28;20164;-74
2022/06/06 01:07:05;;;;;;;4.18;2.92;;;;;;;22.46;46.82;93663.50;4986186;28;20130;-74
2022/06/06 01:09:31;;;;;;;4.88;3.45;;;;;;;22.54;46.94;93667.75;4982705;28;20042;-74
2022/06/06 01:12:00;;;;;;;3.25;2.90;;;;;;;22.59;46.45;93667.34;4974731;28;20026;-74
2022/06/06 01:14:31;;;;;;;4.85;3.13;;;;;;;22.63;46.23;93654.56;4976577;28;20050;-74
2022/06/06 01:17:01;;;;;;;4.18;3.40;;;;;;;22.59;46.62;93659.19;4980678;28;20038;-74
2022/06/06 01:19:42;;;;;;;6.25;3.42;;;;;;;22.62;46.85;93658.44;4981149;28;20042;-73
2022/06/06 01:22:48;;;;;;;9.77;4.35;;;;;;;22.56;48.73;93654.59;4982046;28;20054;-73
2022/06/06 01:25:46;;;;;;;6.60;3.65;;;;;;;22.46;49.59;93625.59;4978633;28;20046;-73
2022/06/06 01:28:21;;;;;;;4.55;3.30;;;;;;;22.41;51.07;93645.72;4985994;28;20031;-74
2022/06/06 01:30:53;;;;;;;9.07;4.05;;;;;;;22.33;51.70;93640.72;4982319;28;20039;-74
2022/06/06 01:33:19;;;;;;;5.75;3.65;;;;;;;22.16;52.69;93626.78;4980898;28;20029;-73
2022/06/06 01:35:47;;;;;;;8.50;3.90;;;;;;;22.28;52.66;93683.31;4983531;28;20023;-74
2022/06/06 01:38:15;;;;;;;4.90;3.50;;;;;;;22.05;52.03;93799.34;4981433;28;20050;-74
2022/06/06 01:40:54;;;;;;;5.40;4.13;;;;;;;21.18;50.82;93782.50;4983127;28;20056;-74
2022/06/06 01:43:42;;;;;;;10.38;5.15;;;;;;;20.73;51.46;93777.63;4985247;28;20587;-73
2022/06/06 01:46:17;;;;;;;11.25;4.63;;;;;;;20.41;54.06;93809.84;4982041;28;20034;-73
2022/06/06 01:48:44;;;;;;;8.98;5.15;;;;;;;19.62;58.72;93788.69;4983820;28;20046;-73
2022/06/06 01:51:13;;;;;;;8.43;5.60;;;;;;;18.99;61.58;93756.38;4982662;28;20148;-73
2022/06/06 01:53:40;;;;;;;12.43;4.20;;;;;;;18.72;64.55;93774.53;4987691;28;20042;-73
2022/06/06 01:56:13;;;;;;;8.05;4.25;;;;;;;18.54;66.60;93746.53;4980812;28;20077;-73
2022/06/06 01:58:39;;;;;;;10.75;3.63;;;;;;;18.46;66.35;93713.34;4983006;28;20026;-73
2022/06/06 02:01:05;;;;;;;6.10;2.10;;;;;;;18.34;65.82;93727.00;4984754;28;20089;-73
2022/06/06 02:03:33;;;;;;;3.08;1.55;;;;;;;18.24;65.79;93738.41;4984243;28;20259;-73
2022/06/06 02:06:02;;;;;;;4.57;1.85;;;;;;;18.23;65.56;93753.03;4984117;28;20022;-73
2022/06/06 02:08:28;;;;;;;6.00;1.95;;;;;;;18.10;66.93;93744.38;4981542;28;20204;-73
2022/06/06 02:10:54;;;;;;;4.80;1.83;;;;;;;18.05;67.82;93750.06;4980806;28;20038;-73
2022/06/06 02:13:19;;;;;;;6.60;1.67;;;;;;;18.01;66.48;93746.53;4986276;28;20034;-73
2022/06/06 02:15:45;;;;;;;4.38;1.95;;;;;;;18.00;66.27;93761.13;4982430;28;20073;-73
2022/06/06 02:18:11;;;;;;;3.55;1.35;;;;;;;18.08;64.97;93760.13;4984007;28;20370;-72
2022/06/06 02:20:36;;;;;;;6.70;1.52;;;;;;;18.25;65.30;93786.50;4983007;28;20125;-73
2022/06/06 02:23:03;;;;;;;5.72;2.65;;;;;;;18.36;65.24;93797.44;4984594;28;20030;-74
2022/06/06 02:25:30;;;;;;;3.22;1.65;;;;;;;18.64;65.84;93832.09;4984095;28;20109;-74
2022/06/06 02:27:56;;;;;;;4.60;1.63;;;;;;;18.69;65.81;93826.38;4982805;28;20516;-73
2022/06/06 02:30:25;;;;;;;3.80;1.95;;;;;;;18.78;65.61;93846.56;4983325;28;20026;-74
2022/06/06 02:32:50;;;;;;;6.18;1.67;;;;;;;18.54;65.46;93855.03;4982950;28;20062;-73
2022/06/06 02:35:19;;;;;;;7.78;2.15;;;;;;;18.48;64.77;93862.63;4974826;28;20153;-74
2022/06/06 02:37:46;;;;;;;6.50;2.10;;;;;;;18.25;68.04;93858.41;4977230;28;20548;-73
2022/06/06 02:40:15;;;;;;;5.72;2.42;;;;;;;18.21;68.39;93839.53;4982628;28;20042;-73
2022/06/06 02:42:41;;;;;;;11.77;2.80;;;;;;;18.42;67.12;93815.63;4982115;28;20092;-73
2022/06/06 02:45:27;;;;;;;6.75;2.13;;;;;;;18.41;66.69;93797.91;4985085;28;20157;-73
2022/06/06 02:47:53;;;;;;;;;;;;;;;18.64;65.69;93792.47;4984651;28;20041;-73
2022/06/06 02:50:21;;;;;;;5.05;2.38;;;;;;;18.58;66.39;93742.75;4985949;28;20368;-73
2022/06/06 02:52:47;;;;;;;6.60;2.13;;;;;;;18.83;66.75;93749.25;4986176;28;20039;-73
2022/06/06 02:55:14;;;;;;;5.05;2.50;;;;;;;18.96;67.14;93732.84;4988868;28;20524;-74
2022/06/06 02:57:45;;;;;;;8.05;2.13;;;;;;;18.99;65.01;93703.25;4989077;28;20117;-73
2022/06/06 03:00:14;;;;;;;6.50;2.20;;;;;;;19.10;65.67;93703.38;4986310;28;20041;-73
2022/06/06 03:02:39;;;;;;;5.13;2.00;;;;;;;19.00;65.48;93691.34;4985516;28;20030;-73
2022/06/06 03:05:06;;;;;;;12.80;3.08;;;;;;;19.31;65.63;93717.81;4986811;28;20840;-73
2022/06/06 03:07:58;;;;;;;5.03;2.78;;;;;;;19.47;65.87;93728.41;4980646;28;20030;-73
2022/06/06 03:10:33;;;;;;;5.65;2.45;;;;;;;19.52;66.18;93736.19;4979710;28;20460;-73
2022/06/06 03:13:17;;;;;;;;;;;;;;;19.66;66.24;93730.13;4985327;28;20523;-73
2022/06/06 03:21:54;;;;;;;8.82;4.03;;;;;;;19.32;68.11;93794.88;4985703;28;20041;-73
2022/06/06 03:24:42;;;;;;;6.88;2.28;;;;;;;19.55;67.38;93802.13;4986186;28;20030;-73
2022/06/06 03:27:20;;;;;;;6.53;2.47;;;;;;;19.77;66.67;93806.56;4986535;28;20153;-73
2022/06/06 03:29:59;;;;;;;5.22;2.90;;;;;;;19.89;66.67;93808.22;4984189;28;20045;-74
2022/06/06 03:32:27;;;;;;;8.88;2.95;;;;;;;19.99;66.04;93815.66;4987172;28;20039;-73
2022/06/06 03:34:59;;;;;;;4.82;2.17;;;;;;;19.69;66.85;93827.31;4986780;28;20034;-73
2022/06/06 03:37:47;;;;;;;6.75;3.58;;;;;;;19.26;68.32;93831.41;4984553;28;20034;-73
2022/06/06 03:40:23;;;;;;;7.60;2.80;;;;;;;19.59;67.37;93838.75;4986801;28;20101;-73
2022/06/06 03:43:10;;;;;;;7.05;4.28;;;;;;;18.79;70.57;93829.25;4984472;28;20062;-73
2022/06/06 03:45:42;;;;;;;11.88;5.05;;;;;;;18.54;72.65;93828.09;4984778;28;20398;-74
2022/06/06 03:48:16;;;;;;;10.57;4.32;;;;;;;18.87;71.88;93830.91;4985687;28;20050;-74
2022/06/06 03:51:15;;;;;;;7.55;4.72;;;;;;;18.96;71.73;93827.19;4983872;28;20049;-74
2022/06/06 03:53:48;;;;;;;8.55;4.75;;;;;;;18.70;72.93;93820.66;4983465;28;20050;-73
2022/06/06 03:56:36;;;;;;;10.45;4.50;;;;;;;19.25;71.21;93815.63;4987932;28;20061;-73
2022/06/06 03:59:02;;;;;;;8.73;4.78;;;;;;;19.42;70.07;93796.16;4982930;28;20061;-73
2022/06/06 04:01:28;;;;;;;7.03;4.20;;;;;;;19.46;69.51;93810.47;4982661;28;20043;-74
2022/06/06 04:03:57;;;;;;;9.52;4.45;;;;;;;19.28;70.18;93801.38;4962117;28;21659;-74
2022/06/06 04:06:28;;;;;;;10.23;4.53;;;;;;;19.40;69.58;93801.16;4976263;28;20393;-73
2022/06/06 04:08:54;;;;;;;9.02;4.45;;;;;;;18.84;70.93;93775.06;4980987;28;20034;-73
2022/06/06 04:11:28;;;;;;;10.15;4.97;;;;;;;19.30;70.19;93794.50;4989245;28;20520;-73
2022/06/06 04:14:15;;;;;;;9.65;4.80;;;;;;;19.28;70.18;93796.00;4987120;28;20037;-73
2022/06/06 04:16:58;;;;;;;8.77;4.97;;;;;;;19.55;69.24;93800.19;4984565;28;20112;-73
2022/06/06 04:19:30;;;;;;;8.35;4.68;;;;;;;19.70;68.66;93791.06;4985021;28;20041;-73
2022/06/06 04:22:08;;;;;;;12.00;6.20;;;;;;;19.91;67.59;93792.41;4987265;28;20125;-74
2022/06/06 04:24:50;;;;;;;11.25;6.10;;;;;;;20.06;66.89;93802.19;4982609;28;20045;-74
2022/06/06 04:27:39;;;;;;;10.15;5.40;;;;;;;19.62;67.81;93808.34;4986744;28;20045;-74
2022/06/06 04:30:07;;;;;;;8.52;5.30;;;;;;;19.08;70.58;93808.84;4974536;28;20750;-73
2022/06/06 04:33:06;;;;;;;12.25;5.75;;;;;;;19.25;70.33;93807.53;4985209;28;20073;-74
2022/06/06 04:35:40;;;;;;;7.65;6.38;;;;;;;19.45;69.32;93795.47;4985595;28;20100;-74
2022/06/06 04:38:18;;;;;;;15.68;5.90;;;;;;;19.59;68.44;93784.03;4976078;28;20038;-74
2022/06/06 04:41:16;;;;;;;8.60;6.50;;;;;;;19.84;68.07;93800.47;4984137;28;20088;-74
2022/06/06 04:43:56;;;;;;;11.25;6.07;;;;;;;19.84;68.28;93805.88;4983205;28;20041;-73
2022/06/06 04:46:42;;;;;;;8.90;6.88;;;;;;;19.69;68.43;93803.03;4981167;28;20039;-74
2022/06/06 04:49:10;;;;;;;11.27;7.30;;;;;;;19.19;70.24;93798.19;4984759;28;20059;-73
2022/06/06 04:51:36;;;;;;;13.02;7.25;;;;;;;19.01;71.31;93792.59;4982001;28;20046;-74
2022/06/06 04:54:03;;;;;;;16.38;8.25;;;;;;;18.96;72.73;93821.78;4986167;28;20068;-72
2022/06/06 04:56:29;;;;;;;11.38;7.45;;;;;;;19.08;72.84;93811.53;4986219;28;20042;-73
2022/06/06 04:58:57;;;;;;;15.80;8.45;;;;;;;19.41;72.08;93826.94;4986472;28;20034;-74
2022/06/06 05:01:24;;;;;;;11.98;7.50;;;;;;;19.50;71.26;93824.78;4985531;28;20038;-73
2022/06/06 05:03:50;;;;;;;10.20;7.68;;;;;;;19.69;70.11;93830.00;4986510;28;20439;-73
2022/06/06 05:06:55;;;;;;;11.40;6.80;;;;;;;20.02;68.29;93823.78;4981687;28;20029;-73
2022/06/06 05:10:08;;;;;;;11.27;6.57;;;;;;;20.11;67.38;93815.34;4977253;28;20489;-73
2022/06/06 05:13:03;;;;;;;11.13;7.03;;;;;;;20.28;67.13;93820.16;4968346;28;20125;-73
2022/06/06 05:15:59;;;;;;;10.80;5.93;;;;;;;20.37;66.44;93823.31;4973592;28;20038;-74
2022/06/06 05:18:41;;;;;;;13.13;6.47;;;;;;;20.44;66.69;93826.06;4984367;28;20036;-73
2022/06/06 05:21:18;;;;;;;9.95;7.03;;;;;;;20.55;66.13;93820.75;4987394;28;20081;-73
2022/06/06 05:24:13;;;;;;;13.30;7.10;;;;;;;20.44;65.97;93827.97;4984396;28;20047;-74
2022/06/06 05:26:48;;;;;;;16.02;6.93;;;;;;;20.67;65.49;93838.59;4998258;28;20084;-74
2022/06/06 05:30:04;;;;;;;11.57;6.82;;;;;;;20.69;65.72;93839.75;4982365;28;20050;-74
2022/06/06 05:32:49;;;;;;;13.43;6.60;;;;;;;20.70;66.20;93835.13;4972100;28;20042;-74
2022/06/06 05:35:45;;;;;;;9.00;6.30;;;;;;;20.77;65.56;93827.84;4986118;28;20042;-74
2022/06/06 05:38:37;;;;;;;9.13;6.03;;;;;;;20.81;65.12;93825.94;4983786;28;20046;-73
2022/06/06 05:41:06;;;;;;;14.05;6.28;;;;;;;20.91;65.58;93832.59;4982783;28;20612;-74
2022/06/06 05:43:46;;;;;;;8.32;5.55;;;;;;;20.92;63.05;93821.38;4986317;28;20068;-74
2022/06/06 05:46:30;;;;;;;11.77;6.72;;;;;;;20.86;63.94;93835.63;4984839;28;20113;-74
2022/06/06 05:49:14;;;;;;;9.43;5.32;;;;;;;20.95;63.84;93842.25;4981814;28;20046;-74
2022/06/06 05:51:54;;;;;;;11.55;5.82;;;;;;;20.96;63.70;93840.34;4986385;28;20092;-73
2022/06/06 05:54:31;;;;;;;10.27;5.80;;;;;;;20.69;64.28;93837.03;4984408;28;20022;-73
2022/06/06 05:57:00;;;;;;;10.82;6.20;;;;;;;20.86;65.72;93849.13;4986757;28;20660;-74
2022/06/06 05:59:54;;;;;;;17.13;7.07;;;;;;;21.02;65.57;93836.13;4980814;28;20041;-73
2022/06/06 06:02:50;;;;;;;12.83;5.73;;;;;;;21.10;65.18;93832.31;4982455;28;20078;-73
2022/06/06 06:05:19;;;;;;;;;;;;;;;21.16;65.05;93825.38;4983539;28;20069;-74
2022/06/06 06:07:57;;;;;;;7.78;5.45;;;;;;;20.82;66.30;93827.50;4971799;28;20414;-73
2022/06/06 06:10:40;;;;;;;13.38;5.70;;;;;;;20.94;65.35;93829.13;4980004;28;20045;-73
2022/06/06 06:13:18;;;;;;;8.70;5.68;;;;;;;20.76;64.90;93841.72;4966676;28;20100;-73
2022/06/06 06:15:44;;;;;;;8.90;4.93;;;;;;;20.72;65.61;93838.22;4952941;28;20042;-74
2022/06/06 06:18:25;;;;;;;9.93;5.55;;;;;;;21.00;64.70;93833.03;4953074;28;20140;-74
2022/06/06 06:20:57;;;;;;;11.40;4.93;;;;;;;20.97;64.99;93856.16;4985518;28;20068;-73
2022/06/06 06:23:26;;;;;;;12.77;6.10;;;;;;;20.78;64.99;93852.91;4983574;28;20038;-74
2022/06/06 06:25:53;;;;;;;9.20;5.13;;;;;;;20.79;64.55;93846.38;4986451;28;20042;-73
2022/06/06 06:28:19;;;;;;;11.35;5.18;;;;;;;20.88;64.74;93841.44;4988547;28;20125;-73
2022/06/06 06:31:30;;;;;;;7.38;5.13;;;;;;;21.08;63.20;93842.72;4986757;28;20039;-74
2022/06/06 06:34:30;;;;;;;9.70;5.03;;;;;;;20.65;63.78;93827.38;4986077;28;20034;-73
2022/06/06 06:37:21;;;;;;;9.80;5.43;;;;;;;21.17;64.07;93836.97;4987570;28;20036;-73
2022/06/06 06:40:19;;;;;;;9.68;5.32;;;;;;;21.29;64.01;93821.19;4988660;28;20042;-74
2022/06/06 06:43:02;;;;;;;9.90;4.78;;;;;;;21.51;61.83;93829.38;4980765;28;20059;-74
2022/06/06 06:45:42;;;;;;;10.73;5.93;;;;;;;21.37;61.18;93820.03;4998440;28;20034;-74
2022/06/06 06:48:13;;;;;;;10.32;5.75;;;;;;;21.30;63.56;93820.03;4989094;28;20049;-73
2022/06/06 06:50:57;;;;;;;10.00;5.53;;;;;;;21.29;63.38;93785.25;4975408;28;20042;-74
2022/06/06 06:53:25;;;;;;;18.20;8.85;;;;;;;21.66;61.84;93804.69;4985994;28;20039;-74
2022/06/06 06:56:03;;;;;;;11.82;5.95;;;;;;;21.89;60.67;93793.56;4987514;28;20030;-73
2022/06/06 06:58:52;;;;;;;13.50;6.18;;;;;;;21.62;61.90;93784.19;4987296;28;20434;-72
2022/06/06 07:01:40;;;;;;;15.18;6.95;;;;;;;21.81;60.56;93775.72;4982942;28;20049;-73
2022/06/06 07:10:35;;;;;;;10.68;6.40;;;;;;;22.34;60.84;93783.16;4985855;28;20046;-74
2022/06/06 07:13:06;;;;;;;19.85;6.63;;;;;;;21.95;62.26;93783.88;4984662;28;20209;-74
2022/06/06 07:15:38;;;;;;;215.88;50.58;;;;;;;22.02;61.78;93773.06;4983767;28;20045;-74
2022/06/06 07:18:06;;;;;;;14.35;8.57;;;;;;;21.64;63.83;93769.16;4984757;28;20042;-75
2022/06/06 07:20:35;;;;;;;11.88;7.63;;;;;;;21.57;64.40;93777.22;4979322;28;20042;-74
2022/06/06 07:23:07;;;;;;;12.73;8.30;;;;;;;21.92;62.03;93763.00;4982438;28;20046;-74
2022/06/06 07:25:44;;;;;;;13.05;7.00;;;;;;;22.16;62.62;93762.22;4980150;28;20476;-73
2022/06/06 07:28:24;;;;;;;11.35;7.05;;;;;;;21.79;64.63;93769.94;4978484;28;20046;-74
2022/06/06 07:31:09;;;;;;;13.05;7.38;;;;;;;22.06;64.33;93763.00;4978022;28;20127;-74
2022/06/06 07:33:57;;;;;;;11.35;7.15;;;;;;;21.97;63.93;93765.31;4983556;28;20524;-73
2022/06/06 07:36:44;;;;;;;18.40;7.78;;;;;;;22.00;63.68;93745.56;4981308;28;20580;-73
2022/06/06 07:39:32;;;;;;;12.20;7.43;;;;;;;22.54;63.64;93776.16;4970538;28;20090;-72
2022/06/06 07:42:00;;;;;;;13.70;7.20;;;;;;;22.67;63.34;93780.00;4980523;28;20275;-73
2022/06/06 07:44:50;;;;;;;17.02;7.65;;;;;;;22.60;62.84;93774.59;4982232;28;20046;-74
2022/06/06 07:47:35;;;;;;;10.73;6.25;;;;;;;22.73;61.19;93784.63;4984240;28;20394;-75
2022/06/06 07:50:22;;;;;;;11.30;7.63;;;;;;;22.87;62.80;93781.16;4982534;28;20509;-73
2022/06/06 07:53:09;;;;;;;14.15;6.63;;;;;;;22.97;60.95;93774.94;4981233;28;20035;-74
2022/06/06 07:55:53;;;;;;;19.13;8.07;;;;;;;22.87;59.95;93783.88;4981477;28;20044;-73
2022/06/06 07:58:38;;;;;;;12.80;7.45;;;;;;;22.62;61.51;93783.91;4980196;28;20369;-74
2022/06/06 08:01:22;;;;;;;9.93;7.95;;;;;;;22.12;62.78;93790.47;4980478;28;20034;-73
2022/06/06 08:03:56;;;;;;;15.60;7.57;;;;;;;22.41;62.54;93777.72;4984227;28;20062;-73
2022/06/06 08:06:29;;;;;;;13.40;6.93;;;;;;;22.86;61.06;93776.09;4977518;28;20034;-73
2022/06/06 08:09:01;;;;;;;16.77;6.82;;;;;;;23.03;60.28;93781.47;4983723;28;20065;-74
2022/06/06 08:11:32;;;;;;;15.93;7.22;;;;;;;23.15;59.61;93786.50;4982243;28;20489;-74
2022/06/06 08:14:03;;;;;;;11.88;4.05;;;;;;;23.22;57.71;93787.63;4984943;28;20045;-73
2022/06/06 08:16:46;;;;;;;6.70;4.13;;;;;;;23.19;55.12;93786.47;4983107;28;20046;-73
2022/06/06 08:19:14;;;;;;;7.47;4.50;;;;;;;23.12;56.05;93792.69;4983229;28;20041;-73
2022/06/06 08:21:44;;;;;;;7.63;3.75;;;;;;;23.08;56.64;93788.44;4984068;28;20034;-74
2022/06/06 08:24:22;;;;;;;10.20;4.15;;;;;;;22.77;57.53;93784.63;4984245;28;20041;-73
2022/06/06 08:26:49;;;;;;;8.40;4.28;;;;;;;22.49;58.43;93787.38;4985324;28;21677;-74
2022/06/06 08:29:16;;;;;;;7.22;3.40;;;;;;;22.35;58.51;93800.94;4983145;28;20034;-74
2022/06/06 08:31:41;;;;;;;12.63;4.00;;;;;;;22.45;58.31;93805.56;4979862;28;20035;-74
2022/06/06 08:34:07;;;;;;;11.73;4.38;;;;;;;22.54;57.44;93792.41;4983115;28;20066;-74
2022/06/06 08:36:38;;;;;;;11.88;3.90;;;;;;;22.35;57.62;93812.56;4982932;28;20050;-73
2022/06/06 08:39:26;;;;;;;5.50;3.08;;;;;;;22.39;58.72;93807.16;4981987;28;20026;-74
2022/06/06 08:42:00;;;;;;;8.57;3.90;;;;;;;22.78;57.23;93805.16;4982766;28;20050;-74
2022/06/06 08:44:39;;;;;;;10.48;3.95;;;;;;;22.65;56.91;93801.31;4983156;28;20047;-74
2022/06/06 08:47:16;;;;;;;8.25;3.47;;;;;;;22.48;55.98;93799.41;4983941;28;20031;-74
2022/06/06 08:52:58;;;;;;;10.23;4.60;;;;;;;22.69;56.06;93788.50;4982484;28;20695;-74
2022/06/06 08:55:30;;;;;;;13.80;5.00;;;;;;;23.23;54.78;93805.44;4985629;28;20042;-73
2022/06/06 08:58:17;;;;;;;8.30;3.13;;;;;;;23.33;53.99;93810.06;4974258;28;20958;-73
2022/06/06 09:01:06;;;;;;;10.68;3.97;;;;;;;22.99;54.06;93815.97;4979903;28;20137;-74
2022/06/06 09:03:44;;;;;;;9.88;3.42;;;;;;;22.89;54.62;93813.28;4978815;28;20062;-74
2022/06/06 09:06:27;;;;;;;12.38;2.97;;;;;;;22.92;53.20;93813.31;4983459;28;20041;-74
2022/06/06 09:09:31;;;;;;;9.80;3.80;;;;;;;22.06;54.12;93819.84;4984277;28;20413;-74
2022/06/06 09:12:28;;;;;;;6.85;2.63;;;;;;;20.66;56.27;93839.72;4981696;28;20074;-73
2022/06/06 09:15:08;;;;;;;5.18;2.78;;;;;;;20.56;57.63;93844.69;4981732;28;20132;-73
2022/06/06 09:17:46;;;;;;;3.55;2.70;;;;;;;20.98;56.10;93863.13;4983639;28;20042;-73
2022/06/06 09:20:18;;;;;;;4.03;2.13;;;;;;;21.19;53.20;93859.78;4984085;28;20073;-74
2022/06/06 09:22:58;;;;;;;3.90;1.40;;;;;;;21.65;54.19;93878.19;4981986;28;20046;-73
2022/06/06 09:25:52;;;;;;;6.15;2.28;;;;;;;21.45;54.76;93875.75;4979267;28;20473;-73
2022/06/06 09:28:17;;;;;;;5.13;2.83;;;;;;;20.93;57.31;93889.75;4975648;28;20053;-73
2022/06/06 09:30:48;;;;;;;6.93;3.40;;;;;;;19.95;59.72;93898.50;4983133;28;20038;-73
2022/06/06 09:33:29;;;;;;;9.93;4.38;;;;;;;19.42;63.03;93898.63;4983113;28;20041;-73
2022/06/06 09:36:06;;;;;;;95.70;36.95;;;;;;;19.67;64.34;93891.66;4982796;28;20763;-74
2022/06/06 09:38:44;;;;;;;311.20;122.78;;;;;;;19.89;61.95;93879.19;4971080;28;20141;-72
2022/06/06 09:41:28;;;;;;;198.98;91.63;;;;;;;19.87;63.92;93876.06;4980933;28;20077;-73
2022/06/06 09:44:15;;;;;;;24.92;12.02;;;;;;;20.58;60.50;93882.91;4982334;28;20042;-73
2022/06/06 09:46:59;;;;;;;57.10;37.42;;;;;;;20.54;56.15;93884.03;4982944;28;20030;-74
2022/06/06 09:49:57;;;;;;;25.98;16.35;;;;;;;20.35;55.76;93876.94;4968461;28;20066;-73
2022/06/06 09:52:22;;;;;;;85.65;58.28;;;;;;;20.78;55.83;93890.75;4977995;28;20502;-74
2022/06/06 10:01:36;;;;;;;3.53;2.33;;;;;;;21.31;52.75;93864.88;4981810;28;20045;-74
2022/06/06 10:04:26;;;;;;;4.30;2.20;;;;;;;21.38;51.87;93866.81;4982981;28;20061;-74
2022/06/06 10:06:57;;;;;;;4.00;1.80;;;;;;;21.37;50.72;93873.38;4980461;28;20045;-73
2022/06/06 10:09:35;;;;;;;2.58;1.60;;;;;;;21.21;49.12;93879.13;4973221;28;20505;-73
2022/06/06 10:12:21;;;;;;;4.38;1.95;;;;;;;21.26;48.85;93857.13;4981434;28;20086;-73
2022/06/06 10:15:02;;;;;;;13.35;3.17;;;;;;;20.92;50.08;93869.28;4983704;28;20401;-74
2022/06/06 10:17:47;;;;;;;3.38;2.10;;;;;;;21.08;51.96;93856.22;4981815;28;20069;-74
2022/06/06 10:20:13;;;;;;;;;;;;;;;20.96;49.67;93870.09;4980800;28;20078;-73
2022/06/06 10:22:46;;;;;;;5.20;2.03;;;;;;;21.17;50.05;93874.84;4979011;28;19926;-74
2022/06/06 10:25:38;;;;;;;5.78;3.67;;;;;;;21.29;50.15;93904.25;4980422;28;20567;-73
2022/06/06 10:28:21;;;;;;;5.75;1.90;;;;;;;21.67;49.62;93911.03;4981361;28;20038;-74
2022/06/06 10:31:09;;;;;;;6.95;2.45;;;;;;;21.61;52.61;93886.25;4978922;28;20081;-73
2022/06/06 10:33:56;;;;;;;6.03;2.40;;;;;;;21.69;56.53;93868.91;4980829;28;20031;-73
2022/06/06 10:37:12;;;;;;;3.25;2.22;;;;;;;21.71;56.98;93838.72;4973842;28;20036;-74
2022/06/06 10:39:46;;;;;;;4.45;2.40;;;;;;;21.93;57.82;93856.59;5003384;28;20041;-73
2022/06/06 10:42:44;;;;;;;3.47;2.08;;;;;;;22.17;55.70;93893.00;4985557;28;20661;-74
2022/06/06 10:45:48;;;;;;;5.53;2.10;;;;;;;22.18;57.41;93895.34;4986289;28;20054;-73
2022/06/06 10:48:31;;;;;;;5.47;2.20;;;;;;;22.10;58.41;93865.91;4983300;28;20374;-74
2022/06/06 10:54:05;;;;;;;4.20;1.92;;;;;;;22.36;59.33;93868.28;4982653;28;20048;-73
2022/06/06 10:56:55;;;;;;;4.13;1.92;;;;;;;22.45;59.41;93865.19;4982546;28;20030;-74
2022/06/06 10:59:37;;;;;;;5.35;2.28;;;;;;;22.26;60.61;93848.16;4979076;28;20074;-74
2022/06/06 11:02:09;;;;;;;7.20;2.78;;;;;;;22.18;61.49;93865.53;4980580;28;20038;-74
2022/06/06 11:05:03;;;;;;;2.80;2.55;;;;;;;22.32;58.25;93866.75;4980475;28;20050;-72
2022/06/06 11:07:48;;;;;;;6.30;2.70;;;;;;;22.38;59.71;93865.97;4967136;28;20104;-74
2022/06/06 11:10:35;;;;;;;3.30;2.17;;;;;;;22.03;61.26;93863.97;4977567;28;20763;-74
2022/06/06 11:13:22;;;;;;;3.15;2.60;;;;;;;22.17;62.50;93866.69;4981658;28;20067;-74
2022/06/06 11:16:06;;;;;;;5.32;4.32;;;;;;;22.10;62.48;93872.09;4983824;28;20042;-74
2022/06/06 11:18:52;;;;;;;7.00;2.78;;;;;;;22.29;62.19;93866.34;4981342;28;20042;-73
2022/06/06 11:21:48;;;;;;;2.50;2.15;;;;;;;22.37;62.86;93863.66;4954908;28;20046;-74
2022/06/06 11:24:39;;;;;;;3.90;2.10;;;;;;;22.30;62.74;93864.41;4968141;28;20026;-72
2022/06/06 11:27:21;;;;;;;3.63;2.15;;;;;;;22.43;60.78;93876.44;4980587;28;20030;-74
2022/06/06 11:30:13;;;;;;;3.70;2.15;;;;;;;22.29;60.08;93862.88;4981302;28;20042;-74
2022/06/06 11:32:44;;;;;;;6.53;3.85;;;;;;;21.19;60.66;93867.88;4965745;28;20057;-74
2022/06/06 11:35:24;;;;;;;4.60;2.58;;;;;;;21.16;63.13;93857.84;4976212;28;20351;-74
2022/06/06 11:38:06;;;;;;;6.45;3.58;;;;;;;21.06;64.00;93858.56;4977648;28;20075;-74
2022/06/06 11:40:31;;;;;;;3.72;3.00;;;;;;;21.01;63.87;93854.28;4981078;28;21142;-73
2022/06/06 11:43:18;;;;;;;2.95;2.50;;;;;;;20.67;62.03;93854.78;4980051;28;20038;-74
2022/06/06 11:46:07;;;;;;;3.75;2.97;;;;;;;20.99;62.72;93856.56;4978845;28;20308;-74
2022/06/06 11:48:54;;;;;;;4.25;2.90;;;;;;;21.36;61.68;93861.78;4980701;28;20369;-74
2022/06/06 11:51:42;;;;;;;3.45;2.92;;;;;;;21.56;62.26;93866.94;4987413;28;20018;-74
2022/06/06 11:54:39;;;;;;;3.30;2.50;;;;;;;20.99;60.30;93870.09;4986150;28;20528;-74
2022/06/06 11:57:50;;;;;;;3.58;2.55;;;;;;;20.91;62.07;93863.09;4986905;28;20045;-73
2022/06/06 12:00:28;;;;;;;4.05;2.70;;;;;;;20.94;63.27;93856.94;4985912;28;20069;-74
2022/06/06 12:03:19;;;;;;;5.22;2.67;;;;;;;21.08;62.06;93858.94;4986980;28;20025;-73
2022/06/06 12:06:00;;;;;;;4.03;2.60;;;;;;;21.34;61.07;93861.41;4983142;28;20042;-74
2022/06/06 12:08:30;;;;;;;4.93;2.92;;;;;;;21.64;61.95;93858.44;4986435;28;20070;-72
2022/06/06 12:11:20;;;;;;;4.05;2.97;;;;;;;21.24;60.55;93858.63;4985331;28;20560;-73
2022/06/06 12:13:48;;;;;;;4.32;2.70;;;;;;;21.44;61.45;93855.25;4979541;28;20042;-74
2022/06/06 12:16:23;;;;;;;6.65;3.42;;;;;;;21.60;60.17;93854.97;4981790;28;20130;-74
2022/06/06 12:19:36;;;;;;;4.68;3.03;;;;;;;21.39;62.07;93833.97;4984543;28;20702;-74
2022/06/06 12:22:34;;;;;;;3.53;2.60;;;;;;;20.92;63.86;93815.22;4981852;28;20042;-73
2022/06/06 12:25:15;;;;;;;7.40;3.95;;;;;;;20.31;66.13;93803.19;4983217;28;20034;-72
2022/06/06 12:27:50;;;;;;;5.50;3.67;;;;;;;20.12;67.05;93806.09;4968992;28;20065;-74
2022/06/06 12:30:31;;;;;;;4.68;3.10;;;;;;;20.00;67.54;93809.06;4983373;28;20041;-74
2022/06/06 12:33:02;;;;;;;4.88;3.17;;;;;;;19.92;64.87;93816.34;4984326;28;20077;-74
2022/06/06 12:35:40;;;;;;;4.45;3.47;;;;;;;19.94;66.54;93832.97;4968529;28;20117;-73
2022/06/06 12:38:59;;;;;;;5.43;3.97;;;;;;;19.77;67.03;93854.34;4983196;28;20613;-74
2022/06/06 12:41:49;;;;;;;6.63;4.07;;;;;;;19.59;65.34;93852.25;4978144;28;20049;-74
2022/06/06 12:44:53;;;;;;;6.68;3.88;;;;;;;19.67;65.41;93853.88;4972870;28;20041;-73
2022/06/06 12:47:27;;;;;;;5.85;3.55;;;;;;;19.73;65.04;93855.09;4983692;28;20240;-72
2022/06/06 12:50:47;;;;;;;6.68;4.70;;;;;;;19.74;66.64;93850.50;4981036;28;20142;-74
2022/06/06 12:53:23;;;;;;;6.82;4.60;;;;;;;19.98;66.62;93843.78;4982346;28;20128;-73
2022/06/06 12:56:38;;;;;;;14.50;4.43;;;;;;;20.08;66.39;93835.00;4982777;28;20049;-74